sensor_id;sensor_type;location;lat;lon;timestamp;P1;durP1;ratioP1;P2;durP2;ratioP2
16994;SDS011;8614;48.522;9.206;2022-12-08T03:01:43;18.67;;;17.07;;
16994;SDS011;8614;48.522;9.206;2022-12-08T03:04:32;18.33;;;16.73;;
16994;SDS011;8614;48.522;9.206;2022-12-08T03:07:08;18.37;;;16.77;;
16994;SDS011;8614;48.522;9.206;2022-12-08T03:09:43;17.93;;;16.33;;
16994;SDS011;8614;48.522;9.206;2022-12-08T03:12:15;18.23;;;16.60;;
16994;SDS011;8614;48.522;9.206;2022-12-08T03:14:46;18.40;;;16.87;;
16994;SDS011;8614;48.522;9.206;2022-12-08T03:17:17;19.07;;;17.37;;
16994;SDS011;8614;48.522;9.206;2022-12-08T03:19:47;19.57;;;17.77;;
16994;SDS011;8614;48.522;9.206;2022-12-08T03:22:15;19.40;;;17.70;;
16994;SDS011;8614;48.522;9.206;2022-12-08T03:24:46;19.30;;;17.30;;
16994;SDS011;8614;48.522;9.206;2022-12-08T03:27:15;19.23;;;17.60;;
16994;SDS011;8614;48.522;9.206;2022-12-08T03:29:44;17.67;;;16.37;;
16994;SDS011;8614;48.522;9.206;2022-12-08T03:32:13;19.37;;;17.53;;
16994;SDS011;8614;48.522;9.206;2022-12-08T03:34:49;19.90;;;18.00;;
16994;SDS011;8614;48.522;9.206;2022-12-08T03:37:18;18.63;;;17.13;;
16994;SDS011;8614;48.522;9.206;2022-12-08T03:39:46;20.13;;;18.40;;
16994;SDS011;8614;48.522;9.206;2022-12-08T03:42:12;19.40;;;17.60;;
16994;SDS011;8614;48.522;9.206;2022-12-08T03:44:39;19.50;;;17.90;;
16994;SDS011;8614;48.522;9.206;2022-12-08T03:47:06;19.80;;;17.97;;
16994;SDS011;8614;48.522;9.206;2022-12-08T03:49:33;18.50;;;17.00;;
16994;SDS011;8614;48.522;9.206;2022-12-08T03:52:01;21.50;;;19.27;;
16994;SDS011;8614;48.522;9.206;2022-12-08T03:54:28;19.17;;;17.37;;
16994;SDS011;8614;48.522;9.206;2022-12-08T03:56:55;18.23;;;16.63;;
16994;SDS011;8614;48.522;9.206;2022-12-08T03:59:22;19.27;;;17.60;;
16994;SDS011;8614;48.522;9.206;2022-12-08T04:01:49;20.20;;;18.20;;
16994;SDS011;8614;48.522;9.206;2022-12-08T04:04:15;19.50;;;17.70;;
16994;SDS011;8614;48.522;9.206;2022-12-08T04:06:43;20.30;;;18.30;;
16994;SDS011;8614;48.522;9.206;2022-12-08T04:09:11;20.23;;;18.43;;
16994;SDS011;8614;48.522;9.206;2022-12-08T04:11:38;20.00;;;18.20;;
16994;SDS011;8614;48.522;9.206;2022-12-08T04:14:05;20.67;;;18.67;;
16994;SDS011;8614;48.522;9.206;2022-12-08T04:16:32;20.90;;;18.90;;
16994;SDS011;8614;48.522;9.206;2022-12-08T04:18:59;20.83;;;18.70;;
16994;SDS011;8614;48.522;9.206;2022-12-08T04:21:26;19.83;;;18.23;;
16994;SDS011;8614;48.522;9.206;2022-12-08T04:23:53;19.53;;;17.83;;
16994;SDS011;8614;48.522;9.206;2022-12-08T04:26:21;19.80;;;18.00;;
16994;SDS011;8614;48.522;9.206;2022-12-08T04:28:48;19.33;;;17.73;;
16994;SDS011;8614;48.522;9.206;2022-12-08T04:31:15;19.70;;;17.80;;
16994;SDS011;8614;48.522;9.206;2022-12-08T04:33:42;19.17;;;17.37;;
16994;SDS011;8614;48.522;9.206;2022-12-08T04:36:09;20.80;;;18.90;;
16994;SDS011;8614;48.522;9.206;2022-12-08T04:38:36;20.20;;;18.40;;
16994;SDS011;8614;48.522;9.206;2022-12-08T04:41:03;19.33;;;17.63;;
16994;SDS011;8614;48.522;9.206;2022-12-08T04:43:31;20.43;;;18.57;;
16994;SDS011;8614;48.522;9.206;2022-12-08T04:45:58;21.93;;;19.73;;
16994;SDS011;8614;48.522;9.206;2022-12-08T04:48:25;20.87;;;18.97;;
16994;SDS011;8614;48.522;9.206;2022-12-08T04:50:52;19.73;;;18.10;;
16994;SDS011;8614;48.522;9.206;2022-12-08T04:53:19;20.70;;;18.83;;
16994;SDS011;8614;48.522;9.206;2022-12-08T04:55:45;20.37;;;18.40;;
16994;SDS011;8614;48.522;9.206;2022-12-08T04:58:14;21.17;;;19.07;;
16994;SDS011;8614;48.522;9.206;2022-12-08T05:00:44;21.33;;;19.20;;
16994;SDS011;8614;48.522;9.206;2022-12-08T05:03:11;20.00;;;18.33;;
16994;SDS011;8614;48.522;9.206;2022-12-08T05:05:39;21.63;;;19.53;;
16994;SDS011;8614;48.522;9.206;2022-12-08T05:08:07;21.83;;;19.87;;
16994;SDS011;8614;48.522;9.206;2022-12-08T05:10:35;20.50;;;18.60;;
16994;SDS011;8614;48.522;9.206;2022-12-08T05:13:01;20.47;;;18.47;;
16994;SDS011;8614;48.522;9.206;2022-12-08T05:15:28;20.80;;;19.00;;
16994;SDS011;8614;48.522;9.206;2022-12-08T05:17:56;19.93;;;18.03;;
16994;SDS011;8614;48.522;9.206;2022-12-08T05:20:23;18.87;;;17.17;;
16994;SDS011;8614;48.522;9.206;2022-12-08T05:22:50;20.07;;;18.17;;
16994;SDS011;8614;48.522;9.206;2022-12-08T05:25:18;20.70;;;18.60;;
16994;SDS011;8614;48.522;9.206;2022-12-08T05:27:45;19.70;;;17.67;;
16994;SDS011;8614;48.522;9.206;2022-12-08T05:30:12;21.67;;;19.50;;
16994;SDS011;8614;48.522;9.206;2022-12-08T05:32:39;20.10;;;18.30;;
16994;SDS011;8614;48.522;9.206;2022-12-08T05:35:07;21.13;;;19.20;;
16994;SDS011;8614;48.522;9.206;2022-12-08T05:37:34;20.80;;;18.87;;
16994;SDS011;8614;48.522;9.206;2022-12-08T05:40:01;20.20;;;18.23;;
16994;SDS011;8614;48.522;9.206;2022-12-08T05:42:29;20.73;;;18.63;;
16994;SDS011;8614;48.522;9.206;2022-12-08T05:44:56;20.83;;;18.77;;
16994;SDS011;8614;48.522;9.206;2022-12-08T05:47:22;20.57;;;18.67;;
16994;SDS011;8614;48.522;9.206;2022-12-08T05:49:49;21.00;;;18.87;;
16994;SDS011;8614;48.522;9.206;2022-12-08T05:52:17;21.13;;;19.17;;
16994;SDS011;8614;48.522;9.206;2022-12-08T05:54:44;20.53;;;18.63;;
16994;SDS011;8614;48.522;9.206;2022-12-08T05:57:11;19.43;;;17.67;;
16994;SDS011;8614;48.522;9.206;2022-12-08T05:59:38;19.37;;;17.67;;
16994;SDS011;8614;48.522;9.206;2022-12-08T06:02:05;19.77;;;18.10;;
16994;SDS011;8614;48.522;9.206;2022-12-08T06:04:32;19.87;;;18.10;;
16994;SDS011;8614;48.522;9.206;2022-12-08T06:06:59;20.70;;;18.80;;
16994;SDS011;8614;48.522;9.206;2022-12-08T06:09:28;19.87;;;18.17;;
16994;SDS011;8614;48.522;9.206;2022-12-08T06:11:55;20.97;;;18.97;;
16994;SDS011;8614;48.522;9.206;2022-12-08T06:14:21;20.37;;;18.63;;
16994;SDS011;8614;48.522;9.206;2022-12-08T06:16:48;19.47;;;17.77;;
16994;SDS011;8614;48.522;9.206;2022-12-08T06:19:15;20.43;;;18.53;;
16994;SDS011;8614;48.522;9.206;2022-12-08T06:21:42;19.33;;;17.63;;
16994;SDS011;8614;48.522;9.206;2022-12-08T06:24:08;21.07;;;19.13;;
16994;SDS011;8614;48.522;9.206;2022-12-08T06:26:37;20.60;;;18.80;;
16994;SDS011;8614;48.522;9.206;2022-12-08T06:29:05;20.90;;;18.90;;
16994;SDS011;8614;48.522;9.206;2022-12-08T06:31:32;19.97;;;18.17;;
16994;SDS011;8614;48.522;9.206;2022-12-08T06:33:59;21.73;;;19.63;;
16994;SDS011;8614;48.522;9.206;2022-12-08T06:36:26;21.40;;;19.60;;
16994;SDS011;8614;48.522;9.206;2022-12-08T06:38:53;21.80;;;19.53;;
16994;SDS011;8614;48.522;9.206;2022-12-08T06:41:20;20.37;;;18.47;;
16994;SDS011;8614;48.522;9.206;2022-12-08T06:43:48;21.13;;;19.03;;
16994;SDS011;8614;48.522;9.206;2022-12-08T06:46:16;20.70;;;19.00;;
16994;SDS011;8614;48.522;9.206;2022-12-08T06:48:44;21.07;;;19.17;;
16994;SDS011;8614;48.522;9.206;2022-12-08T06:51:12;21.83;;;19.73;;
16994;SDS011;8614;48.522;9.206;2022-12-08T06:53:41;19.60;;;18.07;;
16994;SDS011;8614;48.522;9.206;2022-12-08T06:56:09;20.63;;;18.83;;
16994;SDS011;8614;48.522;9.206;2022-12-08T06:58:36;21.53;;;19.63;;
16994;SDS011;8614;48.522;9.206;2022-12-08T07:01:06;22.37;;;20.17;;
16994;SDS011;8614;48.522;9.206;2022-12-08T07:03:34;21.60;;;19.60;;
16994;SDS011;8614;48.522;9.206;2022-12-08T07:06:02;21.40;;;19.57;;
16994;SDS011;8614;48.522;9.206;2022-12-08T07:08:30;23.43;;;19.07;;
16994;SDS011;8614;48.522;9.206;2022-12-08T07:10:57;20.90;;;18.90;;
16994;SDS011;8614;48.522;9.206;2022-12-08T07:13:24;21.67;;;19.63;;
16994;SDS011;8614;48.522;9.206;2022-12-08T07:15:51;22.23;;;20.00;;
16994;SDS011;8614;48.522;9.206;2022-12-08T07:18:19;21.80;;;19.73;;
16994;SDS011;8614;48.522;9.206;2022-12-08T07:20:46;21.17;;;19.37;;
16994;SDS011;8614;48.522;9.206;2022-12-08T07:23:12;20.93;;;19.10;;
16994;SDS011;8614;48.522;9.206;2022-12-08T07:25:40;21.20;;;19.30;;
16994;SDS011;8614;48.522;9.206;2022-12-08T07:28:07;21.60;;;19.60;;
16994;SDS011;8614;48.522;9.206;2022-12-08T07:30:35;21.93;;;19.67;;
16994;SDS011;8614;48.522;9.206;2022-12-08T07:33:02;22.00;;;20.10;;
16994;SDS011;8614;48.522;9.206;2022-12-08T07:35:31;21.80;;;19.53;;
16994;SDS011;8614;48.522;9.206;2022-12-08T07:37:58;22.97;;;20.80;;
16994;SDS011;8614;48.522;9.206;2022-12-08T07:40:24;21.07;;;19.13;;
16994;SDS011;8614;48.522;9.206;2022-12-08T07:42:51;22.13;;;20.07;;
16994;SDS011;8614;48.522;9.206;2022-12-08T07:45:18;21.53;;;19.57;;
16994;SDS011;8614;48.522;9.206;2022-12-08T07:47:45;20.97;;;18.97;;
16994;SDS011;8614;48.522;9.206;2022-12-08T07:50:12;21.53;;;19.47;;
16994;SDS011;8614;48.522;9.206;2022-12-08T07:52:40;20.93;;;18.93;;
16994;SDS011;8614;48.522;9.206;2022-12-08T07:55:07;21.27;;;19.07;;
16994;SDS011;8614;48.522;9.206;2022-12-08T07:57:35;20.40;;;18.40;;
16994;SDS011;8614;48.522;9.206;2022-12-08T08:00:02;21.00;;;18.83;;
16994;SDS011;8614;48.522;9.206;2022-12-08T08:02:36;21.70;;;19.70;;
16994;SDS011;8614;48.522;9.206;2022-12-08T08:05:04;21.17;;;19.17;;
16994;SDS011;8614;48.522;9.206;2022-12-08T08:07:31;22.20;;;20.10;;
16994;SDS011;8614;48.522;9.206;2022-12-08T08:09:59;20.80;;;18.70;;
16994;SDS011;8614;48.522;9.206;2022-12-08T08:12:26;21.17;;;19.37;;
16994;SDS011;8614;48.522;9.206;2022-12-08T08:14:53;20.97;;;18.87;;
16994;SDS011;8614;48.522;9.206;2022-12-08T08:17:20;20.57;;;18.43;;
16994;SDS011;8614;48.522;9.206;2022-12-08T08:19:47;19.90;;;17.83;;
16994;SDS011;8614;48.522;9.206;2022-12-08T08:22:13;19.80;;;18.10;;
16994;SDS011;8614;48.522;9.206;2022-12-08T08:24:40;19.77;;;17.97;;
16994;SDS011;8614;48.522;9.206;2022-12-08T08:27:08;21.13;;;19.20;;
16994;SDS011;8614;48.522;9.206;2022-12-08T08:29:35;21.33;;;19.23;;
16994;SDS011;8614;48.522;9.206;2022-12-08T08:32:02;20.43;;;18.60;;
16994;SDS011;8614;48.522;9.206;2022-12-08T08:34:29;21.40;;;19.40;;
16994;SDS011;8614;48.522;9.206;2022-12-08T08:36:56;21.23;;;19.33;;
16994;SDS011;8614;48.522;9.206;2022-12-08T08:39:23;20.73;;;18.83;;
16994;SDS011;8614;48.522;9.206;2022-12-08T08:41:50;20.50;;;18.67;;
16994;SDS011;8614;48.522;9.206;2022-12-08T08:44:18;20.23;;;18.33;;
16994;SDS011;8614;48.522;9.206;2022-12-08T08:46:45;20.50;;;18.70;;
16994;SDS011;8614;48.522;9.206;2022-12-08T08:49:12;20.30;;;18.43;;
16994;SDS011;8614;48.522;9.206;2022-12-08T08:51:39;21.00;;;19.00;;
16994;SDS011;8614;48.522;9.206;2022-12-08T08:54:05;20.10;;;18.33;;
16994;SDS011;8614;48.522;9.206;2022-12-08T08:56:32;20.13;;;18.30;;
16994;SDS011;8614;48.522;9.206;2022-12-08T08:58:59;19.93;;;18.23;;
16994;SDS011;8614;48.522;9.206;2022-12-08T09:01:28;19.63;;;17.93;;
16994;SDS011;8614;48.522;9.206;2022-12-08T09:03:55;19.70;;;18.00;;
16994;SDS011;8614;48.522;9.206;2022-12-08T09:06:22;19.43;;;17.63;;
16994;SDS011;8614;48.522;9.206;2022-12-08T09:08:50;19.70;;;17.93;;
16994;SDS011;8614;48.522;9.206;2022-12-08T09:11:17;19.27;;;17.47;;
16994;SDS011;8614;48.522;9.206;2022-12-08T09:13:46;19.93;;;18.23;;
16994;SDS011;8614;48.522;9.206;2022-12-08T09:16:13;20.03;;;18.23;;
16994;SDS011;8614;48.522;9.206;2022-12-08T09:18:42;20.87;;;19.17;;
16994;SDS011;8614;48.522;9.206;2022-12-08T09:21:09;19.83;;;18.17;;
16994;SDS011;8614;48.522;9.206;2022-12-08T09:23:39;19.83;;;18.13;;
16994;SDS011;8614;48.522;9.206;2022-12-08T09:26:06;18.97;;;17.47;;
16994;SDS011;8614;48.522;9.206;2022-12-08T09:28:33;18.63;;;16.93;;
16994;SDS011;8614;48.522;9.206;2022-12-08T09:31:00;19.20;;;17.70;;
16994;SDS011;8614;48.522;9.206;2022-12-08T09:33:27;18.27;;;16.77;;
16994;SDS011;8614;48.522;9.206;2022-12-08T09:35:55;18.77;;;17.17;;
16994;SDS011;8614;48.522;9.206;2022-12-08T09:38:22;18.57;;;17.07;;
16994;SDS011;8614;48.522;9.206;2022-12-08T09:40:50;19.23;;;17.53;;
16994;SDS011;8614;48.522;9.206;2022-12-08T09:43:21;18.27;;;16.80;;
16994;SDS011;8614;48.522;9.206;2022-12-08T09:46:03;17.67;;;16.17;;
16994;SDS011;8614;48.522;9.206;2022-12-08T09:48:33;18.03;;;16.63;;
16994;SDS011;8614;48.522;9.206;2022-12-08T09:51:04;18.37;;;16.87;;
16994;SDS011;8614;48.522;9.206;2022-12-08T09:53:33;17.80;;;16.40;;
16994;SDS011;8614;48.522;9.206;2022-12-08T09:56:03;16.83;;;15.53;;
16994;SDS011;8614;48.522;9.206;2022-12-08T09:58:38;16.13;;;14.70;;
16994;SDS011;8614;48.522;9.206;2022-12-08T10:01:11;16.10;;;14.80;;
16994;SDS011;8614;48.522;9.206;2022-12-08T10:03:39;16.63;;;15.33;;
16994;SDS011;8614;48.522;9.206;2022-12-08T10:06:10;15.10;;;13.97;;
16994;SDS011;8614;48.522;9.206;2022-12-08T10:08:45;15.53;;;14.23;;
16994;SDS011;8614;48.522;9.206;2022-12-08T10:11:22;15.77;;;14.57;;
16994;SDS011;8614;48.522;9.206;2022-12-08T10:13:55;15.43;;;14.20;;
16994;SDS011;8614;48.522;9.206;2022-12-08T10:16:32;14.97;;;13.83;;
16994;SDS011;8614;48.522;9.206;2022-12-08T10:19:08;14.43;;;13.33;;
16994;SDS011;8614;48.522;9.206;2022-12-08T10:21:40;14.60;;;13.50;;
16994;SDS011;8614;48.522;9.206;2022-12-08T10:24:10;14.73;;;13.63;;
16994;SDS011;8614;48.522;9.206;2022-12-08T10:26:42;14.77;;;13.77;;
16994;SDS011;8614;48.522;9.206;2022-12-08T10:29:10;13.93;;;12.93;;
16994;SDS011;8614;48.522;9.206;2022-12-08T10:31:38;14.50;;;13.40;;
16994;SDS011;8614;48.522;9.206;2022-12-08T10:34:13;15.70;;;14.50;;
16994;SDS011;8614;48.522;9.206;2022-12-08T10:36:50;15.10;;;13.90;;
16994;SDS011;8614;48.522;9.206;2022-12-08T10:39:30;15.37;;;14.27;;
16994;SDS011;8614;48.522;9.206;2022-12-08T10:42:00;15.87;;;14.60;;
16994;SDS011;8614;48.522;9.206;2022-12-08T10:44:31;15.50;;;14.30;;
16994;SDS011;8614;48.522;9.206;2022-12-08T10:46:58;15.10;;;13.80;;
16994;SDS011;8614;48.522;9.206;2022-12-08T10:49:30;15.93;;;14.63;;
16994;SDS011;8614;48.522;9.206;2022-12-08T10:52:00;15.67;;;14.47;;
16994;SDS011;8614;48.522;9.206;2022-12-08T10:54:34;16.03;;;14.60;;
16994;SDS011;8614;48.522;9.206;2022-12-08T10:57:02;15.10;;;14.00;;
16994;SDS011;8614;48.522;9.206;2022-12-08T10:59:31;15.97;;;14.57;;
16994;SDS011;8614;48.522;9.206;2022-12-08T11:01:58;14.73;;;13.67;;
16994;SDS011;8614;48.522;9.206;2022-12-08T11:04:28;14.50;;;13.27;;
16994;SDS011;8614;48.522;9.206;2022-12-08T11:07:02;14.40;;;13.30;;
16994;SDS011;8614;48.522;9.206;2022-12-08T11:09:35;15.90;;;14.73;;
16994;SDS011;8614;48.522;9.206;2022-12-08T11:12:08;14.93;;;13.80;;
16994;SDS011;8614;48.522;9.206;2022-12-08T11:14:45;14.63;;;13.53;;
16994;SDS011;8614;48.522;9.206;2022-12-08T11:17:15;14.93;;;13.87;;
16994;SDS011;8614;48.522;9.206;2022-12-08T11:19:53;14.47;;;13.50;;
16994;SDS011;8614;48.522;9.206;2022-12-08T11:22:25;14.07;;;12.97;;
16994;SDS011;8614;48.522;9.206;2022-12-08T11:24:55;13.93;;;12.90;;
16994;SDS011;8614;48.522;9.206;2022-12-08T11:27:24;14.07;;;13.10;;
16994;SDS011;8614;48.522;9.206;2022-12-08T11:29:51;14.17;;;13.17;;
16994;SDS011;8614;48.522;9.206;2022-12-08T11:32:18;13.50;;;12.60;;
16994;SDS011;8614;48.522;9.206;2022-12-08T11:34:47;13.97;;;13.00;;
16994;SDS011;8614;48.522;9.206;2022-12-08T11:37:18;14.30;;;13.20;;
16994;SDS011;8614;48.522;9.206;2022-12-08T11:39:50;13.73;;;12.73;;
16994;SDS011;8614;48.522;9.206;2022-12-08T11:42:21;13.20;;;12.30;;
16994;SDS011;8614;48.522;9.206;2022-12-08T11:44:52;13.73;;;12.83;;
16994;SDS011;8614;48.522;9.206;2022-12-08T11:47:23;13.40;;;12.50;;
16994;SDS011;8614;48.522;9.206;2022-12-08T11:49:53;13.60;;;12.60;;
16994;SDS011;8614;48.522;9.206;2022-12-08T11:52:28;13.40;;;12.50;;
16994;SDS011;8614;48.522;9.206;2022-12-08T11:55:02;13.90;;;12.93;;
16994;SDS011;8614;48.522;9.206;2022-12-08T11:57:38;12.93;;;12.03;;
16994;SDS011;8614;48.522;9.206;2022-12-08T12:00:08;13.17;;;12.30;;
16994;SDS011;8614;48.522;9.206;2022-12-08T12:02:39;13.20;;;12.20;;
16994;SDS011;8614;48.522;9.206;2022-12-08T12:05:19;13.10;;;12.10;;
16994;SDS011;8614;48.522;9.206;2022-12-08T12:07:58;13.90;;;12.80;;
16994;SDS011;8614;48.522;9.206;2022-12-08T12:13:45;12.80;;;11.90;;
16994;SDS011;8614;48.522;9.206;2022-12-08T12:16:29;13.07;;;12.17;;
16994;SDS011;8614;48.522;9.206;2022-12-08T12:19:09;14.20;;;13.10;;
16994;SDS011;8614;48.522;9.206;2022-12-08T12:21:40;12.97;;;12.07;;
16994;SDS011;8614;48.522;9.206;2022-12-08T12:24:13;13.53;;;12.63;;
16994;SDS011;8614;48.522;9.206;2022-12-08T12:26:50;13.10;;;12.20;;
16994;SDS011;8614;48.522;9.206;2022-12-08T12:29:22;13.43;;;12.53;;
16994;SDS011;8614;48.522;9.206;2022-12-08T12:31:52;13.57;;;12.57;;
16994;SDS011;8614;48.522;9.206;2022-12-08T12:34:21;12.90;;;12.00;;
16994;SDS011;8614;48.522;9.206;2022-12-08T12:36:51;14.40;;;13.27;;
16994;SDS011;8614;48.522;9.206;2022-12-08T12:39:21;13.90;;;12.80;;
16994;SDS011;8614;48.522;9.206;2022-12-08T12:41:52;13.73;;;12.83;;
16994;SDS011;8614;48.522;9.206;2022-12-08T12:47:05;13.50;;;12.50;;
16994;SDS011;8614;48.522;9.206;2022-12-08T12:49:50;13.37;;;12.37;;
16994;SDS011;8614;48.522;9.206;2022-12-08T12:52:45;13.70;;;12.70;;
16994;SDS011;8614;48.522;9.206;2022-12-08T12:55:20;13.10;;;12.20;;
16994;SDS011;8614;48.522;9.206;2022-12-08T12:57:54;13.30;;;12.40;;
16994;SDS011;8614;48.522;9.206;2022-12-08T13:00:23;13.60;;;12.70;;
16994;SDS011;8614;48.522;9.206;2022-12-08T13:02:52;13.30;;;12.40;;
16994;SDS011;8614;48.522;9.206;2022-12-08T13:05:21;12.97;;;12.10;;
16994;SDS011;8614;48.522;9.206;2022-12-08T13:07:52;13.37;;;12.47;;
16994;SDS011;8614;48.522;9.206;2022-12-08T13:10:22;12.93;;;12.03;;
16994;SDS011;8614;48.522;9.206;2022-12-08T13:13:02;13.50;;;12.50;;
16994;SDS011;8614;48.522;9.206;2022-12-08T13:15:32;13.60;;;12.70;;
16994;SDS011;8614;48.522;9.206;2022-12-08T13:18:01;13.40;;;12.40;;
16994;SDS011;8614;48.522;9.206;2022-12-08T13:20:30;13.93;;;12.93;;
16994;SDS011;8614;48.522;9.206;2022-12-08T13:23:12;13.10;;;12.20;;
16994;SDS011;8614;48.522;9.206;2022-12-08T13:26:07;13.03;;;12.13;;
16994;SDS011;8614;48.522;9.206;2022-12-08T13:29:12;13.40;;;12.50;;
16994;SDS011;8614;48.522;9.206;2022-12-08T13:31:47;13.10;;;12.20;;
16994;SDS011;8614;48.522;9.206;2022-12-08T13:34:17;13.50;;;12.40;;
16994;SDS011;8614;48.522;9.206;2022-12-08T13:36:55;13.47;;;12.57;;
16994;SDS011;8614;48.522;9.206;2022-12-08T13:39:30;13.30;;;12.33;;
16994;SDS011;8614;48.522;9.206;2022-12-08T13:42:02;12.30;;;11.50;;
16994;SDS011;8614;48.522;9.206;2022-12-08T13:44:36;12.53;;;11.73;;
16994;SDS011;8614;48.522;9.206;2022-12-08T13:47:09;13.13;;;12.13;;
16994;SDS011;8614;48.522;9.206;2022-12-08T13:49:39;12.83;;;11.90;;
16994;SDS011;8614;48.522;9.206;2022-12-08T13:52:15;13.67;;;12.67;;
16994;SDS011;8614;48.522;9.206;2022-12-08T13:54:46;13.47;;;12.47;;
16994;SDS011;8614;48.522;9.206;2022-12-08T13:57:18;13.77;;;12.77;;
16994;SDS011;8614;48.522;9.206;2022-12-08T13:59:51;13.60;;;12.60;;
16994;SDS011;8614;48.522;9.206;2022-12-08T14:02:19;13.00;;;12.20;;
16994;SDS011;8614;48.522;9.206;2022-12-08T14:04:53;13.53;;;12.67;;
16994;SDS011;8614;48.522;9.206;2022-12-08T14:07:20;12.87;;;11.97;;
16994;SDS011;8614;48.522;9.206;2022-12-08T14:09:48;12.80;;;11.90;;
16994;SDS011;8614;48.522;9.206;2022-12-08T14:12:16;12.93;;;12.03;;
16994;SDS011;8614;48.522;9.206;2022-12-08T14:14:46;13.10;;;12.20;;
16994;SDS011;8614;48.522;9.206;2022-12-08T14:17:17;13.23;;;12.33;;
16994;SDS011;8614;48.522;9.206;2022-12-08T14:19:51;12.97;;;12.17;;
16994;SDS011;8614;48.522;9.206;2022-12-08T14:22:20;12.97;;;12.07;;
16994;SDS011;8614;48.522;9.206;2022-12-08T14:24:47;13.53;;;12.53;;
16994;SDS011;8614;48.522;9.206;2022-12-08T14:27:16;13.80;;;12.80;;
16994;SDS011;8614;48.522;9.206;2022-12-08T14:29:46;13.27;;;12.30;;
16994;SDS011;8614;48.522;9.206;2022-12-08T14:32:26;13.20;;;12.30;;
16994;SDS011;8614;48.522;9.206;2022-12-08T14:34:56;13.07;;;12.17;;
16994;SDS011;8614;48.522;9.206;2022-12-08T14:37:25;13.13;;;12.23;;
16994;SDS011;8614;48.522;9.206;2022-12-08T14:39:59;13.30;;;12.30;;
16994;SDS011;8614;48.522;9.206;2022-12-08T14:42:28;13.90;;;12.80;;
16994;SDS011;8614;48.522;9.206;2022-12-08T14:44:57;14.10;;;13.10;;
16994;SDS011;8614;48.522;9.206;2022-12-08T14:47:32;14.50;;;13.40;;
16994;SDS011;8614;48.522;9.206;2022-12-08T14:50:00;14.40;;;13.37;;
16994;SDS011;8614;48.522;9.206;2022-12-08T14:52:29;13.97;;;13.03;;
16994;SDS011;8614;48.522;9.206;2022-12-08T14:54:56;13.63;;;12.63;;
16994;SDS011;8614;48.522;9.206;2022-12-08T14:57:26;14.33;;;13.17;;
16994;SDS011;8614;48.522;9.206;2022-12-08T15:00:04;14.07;;;13.00;;
16994;SDS011;8614;48.522;9.206;2022-12-08T15:02:34;13.67;;;12.67;;
16994;SDS011;8614;48.522;9.206;2022-12-08T15:05:09;14.10;;;13.00;;
16994;SDS011;8614;48.522;9.206;2022-12-08T15:07:43;13.77;;;12.87;;
16994;SDS011;8614;48.522;9.206;2022-12-08T15:10:20;14.93;;;13.83;;
16994;SDS011;8614;48.522;9.206;2022-12-08T15:12:56;15.17;;;13.93;;
16994;SDS011;8614;48.522;9.206;2022-12-08T15:15:43;15.10;;;13.90;;
16994;SDS011;8614;48.522;9.206;2022-12-08T15:18:14;15.80;;;14.50;;
16994;SDS011;8614;48.522;9.206;2022-12-08T15:20:43;15.47;;;14.37;;
16994;SDS011;8614;48.522;9.206;2022-12-08T15:23:19;15.30;;;14.17;;
16994;SDS011;8614;48.522;9.206;2022-12-08T15:25:49;13.97;;;12.97;;
16994;SDS011;8614;48.522;9.206;2022-12-08T15:28:17;14.90;;;13.60;;
16994;SDS011;8614;48.522;9.206;2022-12-08T15:30:45;14.67;;;13.47;;
16994;SDS011;8614;48.522;9.206;2022-12-08T15:33:13;14.67;;;13.37;;
16994;SDS011;8614;48.522;9.206;2022-12-08T15:35:40;13.53;;;12.53;;
16994;SDS011;8614;48.522;9.206;2022-12-08T15:38:10;14.90;;;13.77;;
16994;SDS011;8614;48.522;9.206;2022-12-08T15:40:44;14.97;;;13.67;;
16994;SDS011;8614;48.522;9.206;2022-12-08T15:43:11;13.97;;;12.87;;
16994;SDS011;8614;48.522;9.206;2022-12-08T15:45:37;15.37;;;13.97;;
16994;SDS011;8614;48.522;9.206;2022-12-08T15:48:05;13.67;;;12.67;;
16994;SDS011;8614;48.522;9.206;2022-12-08T15:50:33;14.27;;;13.17;;
16994;SDS011;8614;48.522;9.206;2022-12-08T15:53:00;14.10;;;13.10;;
16994;SDS011;8614;48.522;9.206;2022-12-08T15:55:27;13.00;;;12.00;;
16994;SDS011;8614;48.522;9.206;2022-12-08T15:57:54;13.67;;;12.73;;
16994;SDS011;8614;48.522;9.206;2022-12-08T16:00:25;14.17;;;13.17;;
16994;SDS011;8614;48.522;9.206;2022-12-08T16:02:54;13.70;;;12.70;;
16994;SDS011;8614;48.522;9.206;2022-12-08T16:05:21;13.80;;;12.70;;
16994;SDS011;8614;48.522;9.206;2022-12-08T16:07:50;13.40;;;12.40;;
16994;SDS011;8614;48.522;9.206;2022-12-08T16:10:19;14.90;;;13.57;;
16994;SDS011;8614;48.522;9.206;2022-12-08T16:12:47;14.27;;;13.03;;
16994;SDS011;8614;48.522;9.206;2022-12-08T16:15:31;13.47;;;12.37;;
16994;SDS011;8614;48.522;9.206;2022-12-08T16:18:00;13.40;;;12.40;;
16994;SDS011;8614;48.522;9.206;2022-12-08T16:20:27;13.60;;;12.60;;
16994;SDS011;8614;48.522;9.206;2022-12-08T16:22:57;12.20;;;11.40;;
16994;SDS011;8614;48.522;9.206;2022-12-08T16:25:24;11.53;;;10.83;;
16994;SDS011;8614;48.522;9.206;2022-12-08T16:27:52;11.50;;;10.80;;
16994;SDS011;8614;48.522;9.206;2022-12-08T16:30:21;12.03;;;11.23;;
16994;SDS011;8614;48.522;9.206;2022-12-08T16:32:47;11.77;;;10.97;;
16994;SDS011;8614;48.522;9.206;2022-12-08T16:35:15;11.90;;;11.20;;
16994;SDS011;8614;48.522;9.206;2022-12-08T16:37:42;12.90;;;12.00;;
16994;SDS011;8614;48.522;9.206;2022-12-08T16:40:11;11.93;;;11.23;;
16994;SDS011;8614;48.522;9.206;2022-12-08T16:42:38;12.03;;;11.23;;
16994;SDS011;8614;48.522;9.206;2022-12-08T16:45:05;11.77;;;10.97;;
16994;SDS011;8614;48.522;9.206;2022-12-08T16:47:33;12.13;;;11.23;;
16994;SDS011;8614;48.522;9.206;2022-12-08T16:50:02;11.70;;;10.83;;
16994;SDS011;8614;48.522;9.206;2022-12-08T16:52:30;11.20;;;10.50;;
16994;SDS011;8614;48.522;9.206;2022-12-08T16:54:57;11.87;;;11.07;;
16994;SDS011;8614;48.522;9.206;2022-12-08T16:57:25;11.73;;;11.00;;
16994;SDS011;8614;48.522;9.206;2022-12-08T16:59:52;11.50;;;10.80;;
16994;SDS011;8614;48.522;9.206;2022-12-08T17:02:18;12.63;;;11.83;;
16994;SDS011;8614;48.522;9.206;2022-12-08T17:04:45;12.33;;;11.53;;
16994;SDS011;8614;48.522;9.206;2022-12-08T17:07:12;12.07;;;11.27;;
16994;SDS011;8614;48.522;9.206;2022-12-08T17:09:39;12.10;;;11.37;;
16994;SDS011;8614;48.522;9.206;2022-12-08T17:12:06;12.20;;;11.40;;
16994;SDS011;8614;48.522;9.206;2022-12-08T17:14:35;12.17;;;11.30;;
16994;SDS011;8614;48.522;9.206;2022-12-08T17:17:02;12.27;;;11.47;;
16994;SDS011;8614;48.522;9.206;2022-12-08T17:19:30;12.07;;;11.27;;
16994;SDS011;8614;48.522;9.206;2022-12-08T17:21:56;11.90;;;11.13;;
16994;SDS011;8614;48.522;9.206;2022-12-08T17:24:23;11.77;;;10.97;;
16994;SDS011;8614;48.522;9.206;2022-12-08T17:26:53;11.67;;;10.93;;
16994;SDS011;8614;48.522;9.206;2022-12-08T17:29:20;11.77;;;10.97;;
16994;SDS011;8614;48.522;9.206;2022-12-08T17:31:48;11.97;;;11.07;;
16994;SDS011;8614;48.522;9.206;2022-12-08T17:34:16;11.43;;;10.63;;
16994;SDS011;8614;48.522;9.206;2022-12-08T17:36:42;12.30;;;11.40;;
16994;SDS011;8614;48.522;9.206;2022-12-08T17:39:09;11.63;;;10.83;;
16994;SDS011;8614;48.522;9.206;2022-12-08T17:41:38;11.63;;;10.77;;
16994;SDS011;8614;48.522;9.206;2022-12-08T17:44:08;11.80;;;11.00;;
16994;SDS011;8614;48.522;9.206;2022-12-08T17:46:37;11.67;;;10.97;;
16994;SDS011;8614;48.522;9.206;2022-12-08T17:49:08;12.00;;;11.20;;
16994;SDS011;8614;48.522;9.206;2022-12-08T17:51:35;12.33;;;11.53;;
16994;SDS011;8614;48.522;9.206;2022-12-08T17:54:02;11.60;;;10.90;;